createdAt,value
2022-11-11T00:01:03.479Z,3.40
2022-11-11T00:03:30.909Z,3.67
2022-11-11T00:06:03.034Z,4.18
2022-11-11T00:08:29.511Z,3.13
2022-11-11T00:11:07.082Z,4.32
2022-11-11T00:13:34.398Z,3.78
2022-11-11T00:16:15.161Z,5.78
2022-11-11T00:19:01.906Z,4.03
2022-11-11T00:21:28.534Z,3.58
2022-11-11T00:24:24.101Z,3.50
2022-11-11T00:26:50.672Z,4.47
2022-11-11T00:29:17.194Z,3.10
2022-11-11T00:32:02.214Z,3.95
2022-11-11T00:34:28.602Z,3.70
2022-11-11T00:36:55.070Z,3.20
2022-11-11T00:39:21.518Z,3.75
2022-11-11T00:41:47.977Z,3.40
2022-11-11T00:44:14.550Z,3.17
2022-11-11T00:46:59.493Z,3.38
2022-11-11T00:49:44.309Z,3.92
2022-11-11T00:52:10.799Z,3.47
2022-11-11T00:54:37.289Z,3.00
2022-11-11T00:57:03.790Z,3.03
2022-11-11T00:59:30.167Z,3.22
2022-11-11T01:01:56.695Z,3.17
2022-11-11T01:04:23.237Z,3.17
2022-11-11T01:06:49.713Z,3.58
2022-11-11T01:09:16.298Z,2.97
2022-11-11T01:11:42.768Z,2.92
2022-11-11T01:14:09.207Z,3.22
2022-11-11T01:16:35.718Z,3.35
2022-11-11T01:19:02.161Z,3.30
2022-11-11T01:21:28.602Z,3.40
2022-11-11T01:23:55.403Z,3.42
2022-11-11T01:26:29.179Z,3.28
2022-11-11T01:28:57.733Z,4.10
2022-11-11T01:31:25.543Z,3.22
2022-11-11T01:33:52.021Z,3.25
2022-11-11T01:36:21.567Z,3.13
2022-11-11T01:38:55.575Z,2.88
2022-11-11T01:41:35.585Z,2.80
2022-11-11T01:44:11.168Z,2.83
2022-11-11T01:46:42.660Z,3.03
2022-11-11T01:49:42.971Z,2.80
2022-11-11T01:52:18.942Z,3.05
2022-11-11T01:55:09.288Z,3.30
2022-11-11T01:57:51.184Z,2.60
2022-11-11T02:02:51.282Z,3.47
2022-11-11T02:05:38.899Z,2.55
2022-11-11T02:08:10.622Z,2.90
2022-11-11T02:13:30.766Z,2.97
2022-11-11T02:15:57.504Z,2.72
2022-11-11T02:18:24.339Z,2.80
2022-11-11T02:20:50.975Z,3.47
2022-11-11T02:23:26.785Z,3.20
2022-11-11T02:25:56.292Z,3.35
2022-11-11T02:28:27.628Z,3.50
2022-11-11T02:30:54.342Z,3.50
2022-11-11T02:33:21.004Z,5.18
2022-11-11T02:35:58.822Z,2.67
2022-11-11T02:38:26.193Z,2.90
2022-11-11T02:41:11.684Z,3.13
2022-11-11T02:43:38.151Z,3.38
2022-11-11T02:46:07.613Z,2.58
2022-11-11T02:48:34.811Z,3.63
2022-11-11T02:51:01.445Z,2.80
2022-11-11T02:53:28.340Z,2.70
2022-11-11T02:55:55.164Z,3.03
2022-11-11T02:58:21.637Z,2.90
2022-11-11T03:00:48.429Z,3.05
2022-11-11T03:03:15.020Z,3.90
2022-11-11T03:05:41.493Z,3.42
2022-11-11T03:08:08.227Z,3.17
2022-11-11T03:10:34.718Z,3.53
2022-11-11T03:13:01.144Z,3.05
2022-11-11T03:15:27.551Z,3.88
2022-11-11T03:17:54.252Z,3.40
2022-11-11T03:20:39.242Z,3.55
2022-11-11T03:23:08.222Z,3.20
2022-11-11T03:25:38.549Z,3.13
2022-11-11T03:28:10.886Z,4.45
2022-11-11T03:30:39.998Z,3.67
2022-11-11T03:33:06.874Z,3.00
2022-11-11T03:35:34.151Z,3.75
2022-11-11T03:38:16.294Z,4.40
2022-11-11T03:40:44.473Z,3.17
2022-11-11T03:43:12.269Z,4.07
2022-11-11T03:45:39.141Z,3.53
2022-11-11T03:48:06.284Z,3.00
2022-11-11T03:50:33.197Z,4.65
2022-11-11T03:52:59.872Z,2.80
2022-11-11T03:55:27.543Z,3.70
2022-11-11T03:57:53.974Z,3.22
2022-11-11T04:00:25.820Z,3.10
2022-11-11T04:03:19.621Z,3.17
2022-11-11T04:06:04.468Z,3.45
2022-11-11T04:08:49.257Z,2.92
2022-11-11T04:11:27.052Z,3.17
2022-11-11T04:14:14.993Z,3.78
2022-11-11T04:16:41.373Z,2.83
2022-11-11T04:19:25.999Z,3.13
2022-11-11T04:21:52.538Z,2.95
2022-11-11T04:24:39.986Z,3.10
2022-11-11T04:27:09.603Z,2.78
2022-11-11T04:29:36.616Z,3.05
2022-11-11T04:32:23.392Z,2.63
2022-11-11T04:34:57.769Z,2.75
2022-11-11T04:37:26.441Z,2.70
2022-11-11T04:40:11.794Z,3.25
2022-11-11T04:42:41.584Z,3.55
2022-11-11T04:45:32.694Z,3.47
2022-11-11T04:48:10.336Z,3.10
2022-11-11T04:50:39.277Z,3.97
2022-11-11T04:53:10.168Z,3.15
2022-11-11T04:55:55.653Z,3.30
2022-11-11T04:58:24.351Z,3.40
2022-11-11T05:00:51.001Z,3.20
2022-11-11T05:03:19.117Z,3.83
2022-11-11T05:06:18.434Z,4.20
2022-11-11T05:08:56.007Z,2.60
2022-11-11T05:11:28.472Z,2.75
2022-11-11T05:14:16.740Z,2.90
2022-11-11T05:17:04.591Z,3.03
2022-11-11T05:19:49.775Z,3.20
2022-11-11T05:22:38.741Z,2.95
2022-11-11T05:25:24.489Z,3.10
2022-11-11T05:27:52.870Z,2.60
2022-11-11T05:30:20.602Z,2.90
2022-11-11T05:32:47.370Z,3.22
2022-11-11T05:35:14.803Z,3.05
2022-11-11T05:37:42.325Z,3.58
2022-11-11T05:40:09.989Z,2.50
2022-11-11T05:42:47.052Z,3.72
2022-11-11T05:45:16.029Z,3.10
2022-11-11T05:47:42.444Z,3.47
2022-11-11T05:50:09.270Z,3.13
2022-11-11T05:52:35.636Z,3.25
2022-11-11T05:55:02.028Z,3.50
2022-11-11T05:57:28.395Z,3.90
2022-11-11T05:59:54.877Z,3.33
2022-11-11T06:02:21.498Z,3.35
2022-11-11T06:04:47.993Z,4.25
2022-11-11T06:07:14.430Z,3.90
2022-11-11T06:09:40.863Z,3.70
2022-11-11T06:12:07.388Z,3.95
2022-11-11T06:14:33.784Z,3.83
2022-11-11T06:17:00.180Z,3.95
2022-11-11T06:19:26.576Z,3.65
2022-11-11T06:21:59.097Z,3.80
2022-11-11T06:24:26.991Z,3.65
2022-11-11T06:26:54.935Z,3.10
2022-11-11T06:29:21.684Z,3.50
2022-11-11T06:31:48.346Z,3.08
2022-11-11T06:34:14.874Z,3.58
2022-11-11T06:36:41.286Z,3.00
2022-11-11T06:39:07.794Z,2.80
2022-11-11T06:41:34.174Z,2.67
2022-11-11T06:44:00.614Z,3.00
2022-11-11T06:46:27.412Z,2.75
2022-11-11T06:48:53.861Z,2.40
2022-11-11T06:51:20.310Z,2.60
2022-11-11T06:53:46.781Z,2.80
2022-11-11T06:56:13.228Z,3.15
2022-11-11T06:58:40.129Z,2.70
2022-11-11T07:01:08.296Z,2.58
2022-11-11T07:03:35.835Z,3.03
2022-11-11T07:06:03.743Z,2.60
2022-11-11T07:08:30.631Z,2.17
2022-11-11T07:10:57.268Z,3.03
2022-11-11T07:13:24.264Z,3.40
2022-11-11T07:15:50.687Z,2.67
2022-11-11T07:18:17.071Z,2.33
2022-11-11T07:20:43.528Z,3.05
2022-11-11T07:23:09.984Z,2.47
2022-11-11T07:25:36.412Z,2.28
2022-11-11T07:28:02.878Z,3.88
2022-11-11T07:30:29.408Z,3.00
2022-11-11T07:32:55.955Z,2.42
2022-11-11T07:35:23.097Z,3.97
2022-11-11T07:37:49.748Z,2.67
2022-11-11T07:40:17.782Z,2.33
2022-11-11T07:42:44.801Z,2.90
2022-11-11T07:45:13.098Z,3.50
2022-11-11T07:47:39.615Z,2.22
2022-11-11T07:50:08.492Z,2.15
2022-11-11T07:52:37.241Z,3.75
2022-11-11T07:55:05.328Z,2.25
2022-11-11T07:57:31.883Z,2.75
2022-11-11T07:59:59.650Z,2.70
2022-11-11T08:02:26.083Z,2.60
2022-11-11T08:04:55.289Z,2.60
2022-11-11T08:07:23.808Z,2.80
2022-11-11T08:09:51.286Z,3.00
2022-11-11T08:12:36.335Z,2.80
2022-11-11T08:15:06.493Z,2.83
2022-11-11T08:17:39.227Z,2.13
2022-11-11T08:20:08.917Z,2.13
2022-11-11T08:22:39.741Z,2.45
2022-11-11T08:25:09.099Z,2.23
2022-11-11T08:27:36.881Z,2.63
2022-11-11T08:30:04.813Z,2.95
2022-11-11T08:32:31.194Z,2.88
2022-11-11T08:34:57.585Z,2.35
2022-11-11T08:37:24.086Z,2.95
2022-11-11T08:39:52.342Z,2.30
2022-11-11T08:42:18.827Z,2.50
2022-11-11T08:44:45.328Z,2.50
2022-11-11T08:47:11.740Z,2.53
2022-11-11T08:49:38.146Z,2.35
2022-11-11T08:52:04.865Z,2.92
2022-11-11T08:54:31.276Z,3.30
2022-11-11T08:56:57.685Z,2.50
2022-11-11T08:59:24.121Z,3.17
2022-11-11T09:01:50.503Z,2.03
2022-11-11T09:04:43.114Z,2.75
2022-11-11T09:07:03.609Z,3.28
2022-11-11T09:09:30.091Z,3.97
2022-11-11T09:11:56.617Z,2.28
2022-11-11T09:14:23.254Z,2.60
2022-11-11T09:16:49.939Z,2.40
2022-11-11T09:19:16.527Z,2.55
2022-11-11T09:21:42.934Z,2.60
2022-11-11T09:24:09.612Z,2.75
2022-11-11T09:26:36.102Z,2.42
2022-11-11T09:29:02.585Z,2.58
2022-11-11T09:31:43.951Z,2.42
2022-11-11T09:34:12.343Z,2.67
2022-11-11T09:36:39.060Z,3.70
2022-11-11T09:39:05.588Z,2.33
2022-11-11T09:41:51.832Z,2.47
2022-11-11T09:44:56.681Z,2.40
2022-11-11T09:47:26.225Z,2.45
2022-11-11T09:50:06.607Z,2.10
2022-11-11T09:52:54.940Z,2.55
2022-11-11T09:55:33.485Z,3.28
2022-11-11T09:58:12.244Z,2.40
2022-11-11T10:00:43.014Z,2.88
2022-11-11T10:03:20.451Z,2.70
2022-11-11T10:05:59.846Z,2.42
2022-11-11T10:08:40.682Z,2.50
2022-11-11T10:11:16.481Z,3.00
2022-11-11T10:13:42.940Z,1.90
2022-11-11T10:16:28.552Z,3.00
2022-11-11T10:19:23.926Z,2.03
2022-11-11T10:22:11.677Z,2.45
2022-11-11T10:24:50.821Z,2.08
2022-11-11T10:27:21.246Z,2.30
2022-11-11T10:29:49.143Z,3.25
2022-11-11T10:32:29.815Z,2.50
2022-11-11T10:35:05.721Z,2.53
2022-11-11T10:37:42.283Z,2.30
2022-11-11T10:40:32.284Z,2.15
2022-11-11T10:42:59.200Z,3.10
2022-11-11T10:45:41.940Z,2.35
2022-11-11T10:48:20.340Z,2.40
2022-11-11T10:51:00.335Z,3.50
2022-11-11T10:53:43.248Z,3.10
2022-11-11T10:56:43.346Z,2.50
2022-11-11T10:59:13.206Z,2.05
2022-11-11T11:01:54.878Z,1.98
2022-11-11T11:04:43.027Z,2.65
2022-11-11T11:07:13.829Z,2.08
2022-11-11T11:09:48.105Z,2.07
2022-11-11T11:12:24.988Z,2.20
2022-11-11T11:14:56.648Z,2.30
2022-11-11T11:17:31.125Z,2.50
2022-11-11T11:20:12.857Z,2.90
2022-11-11T11:22:50.144Z,2.20
2022-11-11T11:25:18.676Z,1.90
2022-11-11T11:27:45.612Z,2.30
2022-11-11T11:30:23.813Z,2.55
2022-11-11T11:33:16.693Z,2.40
2022-11-11T11:35:45.193Z,2.10
2022-11-11T11:38:13.396Z,2.30
2022-11-11T11:40:56.467Z,2.45
2022-11-11T11:43:37.637Z,1.83
2022-11-11T11:46:35.309Z,1.98
2022-11-11T11:49:11.403Z,1.90
2022-11-11T11:52:00.302Z,2.10
2022-11-11T11:54:35.787Z,2.60
2022-11-11T11:57:31.325Z,2.75
2022-11-11T12:00:16.680Z,2.50
2022-11-11T12:03:17.429Z,2.30
2022-11-11T12:06:04.030Z,1.73
2022-11-11T12:08:38.428Z,2.00
2022-11-11T12:11:18.290Z,3.17
2022-11-11T12:13:57.455Z,2.55
2022-11-11T12:16:26.467Z,2.83
2022-11-11T12:19:10.026Z,2.45
2022-11-11T12:21:57.916Z,2.28
2022-11-11T12:24:42.640Z,2.22
2022-11-11T12:27:21.689Z,2.20
2022-11-11T12:30:03.420Z,3.30
2022-11-11T12:33:00.524Z,2.30
2022-11-11T12:35:41.254Z,2.58
2022-11-11T12:38:32.240Z,2.50
2022-11-11T12:41:44.844Z,2.65
2022-11-11T12:44:14.035Z,2.13
2022-11-11T12:46:59.068Z,2.30
2022-11-11T12:49:37.633Z,2.95
2022-11-11T12:52:22.984Z,3.60
2022-11-11T12:55:01.836Z,2.35
2022-11-11T12:57:58.225Z,2.50
2022-11-11T13:00:26.463Z,3.05
2022-11-11T13:03:31.320Z,2.70
2022-11-11T13:06:09.587Z,2.60
2022-11-11T13:09:23.736Z,2.50
2022-11-11T13:12:18.129Z,2.47
2022-11-11T13:14:47.746Z,2.30
2022-11-11T13:17:15.249Z,2.88
2022-11-11T13:20:05.288Z,3.40
2022-11-11T13:22:33.047Z,2.70
2022-11-11T13:25:04.784Z,2.88
2022-11-11T13:27:34.483Z,3.47
2022-11-11T13:30:38.587Z,2.63
2022-11-11T13:33:13.028Z,3.63
2022-11-11T13:35:44.744Z,2.42
2022-11-11T13:40:58.415Z,2.30
2022-11-11T13:43:31.892Z,2.47
2022-11-11T13:46:01.465Z,2.95
2022-11-11T13:48:30.577Z,2.03
2022-11-11T13:51:24.864Z,2.67
2022-11-11T13:53:51.789Z,2.53
2022-11-11T13:56:44.736Z,2.40
2022-11-11T13:59:28.257Z,2.20
2022-11-11T14:02:23.150Z,2.15
2022-11-11T14:05:01.847Z,2.60
2022-11-11T14:07:49.785Z,3.00
2022-11-11T14:10:16.455Z,2.80
2022-11-11T14:12:53.912Z,2.60
2022-11-11T14:15:37.803Z,3.00
2022-11-11T14:18:10.652Z,3.20
2022-11-11T14:20:41.151Z,3.03
2022-11-11T14:23:28.828Z,3.30
2022-11-11T14:26:11.039Z,2.92
2022-11-11T14:29:03.580Z,2.80
2022-11-11T14:31:29.922Z,2.75
2022-11-11T14:34:19.754Z,3.20
2022-11-11T14:37:27.185Z,4.85
2022-11-11T14:39:55.710Z,3.90
2022-11-11T14:42:45.710Z,5.47
2022-11-11T14:45:30.473Z,5.35
2022-11-11T14:47:59.952Z,4.85
2022-11-11T14:50:32.312Z,4.18
2022-11-11T14:53:28.886Z,5.22
2022-11-11T14:55:55.784Z,6.30
2022-11-11T14:58:25.690Z,4.30
2022-11-11T15:01:00.856Z,4.53
2022-11-11T15:03:42.157Z,3.70
2022-11-11T15:06:18.414Z,3.60
2022-11-11T15:08:59.444Z,3.95
2022-11-11T15:11:51.661Z,4.97
2022-11-11T15:14:52.062Z,4.82
2022-11-11T15:17:45.268Z,5.72
2022-11-11T15:20:40.963Z,6.20
2022-11-11T15:23:30.713Z,4.15
2022-11-11T15:26:21.672Z,4.63
2022-11-11T15:28:59.355Z,3.28
2022-11-11T15:31:37.747Z,3.80
2022-11-11T15:34:16.295Z,3.42
2022-11-11T15:36:55.984Z,2.75
2022-11-11T15:39:27.337Z,3.17
2022-11-11T15:41:54.432Z,3.78
2022-11-11T15:44:29.113Z,4.13
2022-11-11T15:46:56.094Z,3.63
2022-11-11T15:49:41.863Z,3.70
2022-11-11T15:52:23.184Z,3.25
2022-11-11T15:54:50.858Z,2.90
2022-11-11T15:57:23.881Z,2.88
2022-11-11T15:59:50.526Z,3.97
2022-11-11T16:02:27.787Z,3.63
2022-11-11T16:05:00.832Z,3.58
2022-11-11T16:07:32.111Z,3.53
2022-11-11T16:10:04.941Z,3.40
2022-11-11T16:12:41.807Z,2.97
2022-11-11T16:15:09.580Z,3.15
2022-11-11T16:17:39.924Z,3.67
2022-11-11T16:20:14.090Z,3.55
2022-11-11T16:22:42.681Z,3.47
2022-11-11T16:25:19.728Z,3.45
2022-11-11T16:27:46.740Z,3.42
2022-11-11T16:30:32.791Z,3.00
2022-11-11T16:32:59.925Z,3.80
2022-11-11T16:35:35.261Z,3.25
2022-11-11T16:38:03.947Z,3.17
2022-11-11T16:40:33.069Z,2.60
2022-11-11T16:43:27.932Z,3.15
2022-11-11T16:46:08.694Z,3.55
2022-11-11T16:48:45.216Z,2.95
2022-11-11T16:51:23.257Z,3.65
2022-11-11T16:54:34.621Z,4.00
2022-11-11T16:57:01.319Z,4.67
2022-11-11T16:59:43.215Z,5.30
2022-11-11T17:04:51.458Z,5.28
2022-11-11T17:07:33.029Z,6.00
2022-11-11T17:10:08.964Z,4.60
2022-11-11T17:12:40.314Z,4.60
2022-11-11T17:15:13.470Z,5.00
2022-11-11T17:17:41.766Z,5.05
2022-11-11T17:20:08.640Z,4.82
2022-11-11T17:22:35.043Z,4.85
2022-11-11T17:25:01.687Z,4.55
2022-11-11T17:27:31.872Z,4.28
2022-11-11T17:29:58.526Z,4.15
2022-11-11T17:32:25.004Z,3.90
2022-11-11T17:34:51.478Z,4.28
2022-11-11T17:37:18.134Z,3.88
2022-11-11T17:39:44.872Z,4.10
2022-11-11T17:42:11.458Z,4.53
2022-11-11T17:44:38.001Z,3.70
2022-11-11T17:47:04.455Z,4.28
2022-11-11T17:49:55.268Z,4.50
2022-11-11T17:52:17.429Z,3.45
2022-11-11T17:54:43.934Z,4.43
2022-11-11T17:57:10.516Z,4.38
2022-11-11T17:59:36.982Z,4.35
2022-11-11T18:02:03.901Z,5.32
2022-11-11T18:04:30.527Z,5.32
2022-11-11T18:06:57.009Z,5.70
2022-11-11T18:09:23.451Z,5.93
2022-11-11T18:11:49.862Z,5.85
2022-11-11T18:14:17.690Z,7.75
2022-11-11T18:16:45.171Z,7.65
2022-11-11T18:19:11.684Z,8.15
2022-11-11T18:21:41.952Z,9.25
2022-11-11T18:24:09.943Z,8.52
2022-11-11T18:26:37.724Z,7.95
2022-11-11T18:29:10.693Z,7.68
2022-11-11T18:31:37.262Z,6.85
2022-11-11T18:34:04.076Z,6.35
2022-11-11T18:36:30.581Z,6.70
2022-11-11T18:38:57.087Z,6.90
2022-11-11T18:41:24.339Z,5.97
2022-11-11T18:43:52.185Z,5.43
2022-11-11T18:46:21.643Z,5.28
2022-11-11T18:48:48.393Z,6.22
2022-11-11T18:51:17.440Z,6.07
2022-11-11T18:53:44.070Z,6.22
2022-11-11T18:56:13.444Z,7.07
2022-11-11T18:58:40.259Z,7.43
2022-11-11T19:01:13.408Z,7.80
2022-11-11T19:03:41.081Z,7.63
2022-11-11T19:06:09.199Z,8.38
2022-11-11T19:08:35.839Z,8.38
2022-11-11T19:11:03.587Z,8.60
2022-11-11T19:13:30.263Z,7.90
2022-11-11T19:15:56.916Z,7.10
2022-11-11T19:18:23.733Z,6.80
2022-11-11T19:20:50.156Z,7.57
2022-11-11T19:23:16.623Z,7.55
2022-11-11T19:25:43.416Z,6.28
2022-11-11T19:28:10.893Z,6.47
2022-11-11T19:30:37.338Z,6.72
2022-11-11T19:33:04.021Z,7.18
2022-11-11T19:35:30.435Z,6.78
2022-11-11T19:37:56.888Z,6.90
2022-11-11T19:40:23.435Z,6.90
2022-11-11T19:42:50.789Z,6.93
2022-11-11T19:45:17.322Z,6.40
2022-11-11T19:47:44.101Z,7.40
2022-11-11T19:50:10.580Z,8.75
2022-11-11T19:52:37.296Z,10.38
2022-11-11T19:55:04.014Z,9.77
2022-11-11T19:57:30.568Z,9.00
2022-11-11T19:59:56.959Z,8.60
2022-11-11T20:02:23.423Z,8.75
2022-11-11T20:04:49.825Z,9.20
2022-11-11T20:07:16.334Z,8.65
2022-11-11T20:09:42.806Z,9.15
2022-11-11T20:12:09.302Z,8.10
2022-11-11T20:14:35.756Z,7.57
2022-11-11T20:17:02.224Z,6.95
2022-11-11T20:19:28.656Z,6.90
2022-11-11T20:21:55.110Z,7.00
2022-11-11T20:24:21.589Z,7.15
2022-11-11T20:26:52.324Z,6.15
2022-11-11T20:29:19.198Z,5.75
2022-11-11T20:31:45.668Z,6.90
2022-11-11T20:34:12.098Z,6.03
2022-11-11T20:36:38.549Z,7.43
2022-11-11T20:39:05.040Z,6.80
2022-11-11T20:41:31.910Z,7.85
2022-11-11T20:43:58.299Z,7.68
2022-11-11T20:46:24.781Z,6.88
2022-11-11T20:48:52.293Z,7.18
2022-11-11T20:51:21.211Z,6.75
2022-11-11T20:53:51.801Z,6.88
2022-11-11T20:56:23.613Z,6.45
2022-11-11T20:58:54.447Z,7.00
2022-11-11T21:01:24.986Z,6.90
2022-11-11T21:03:59.121Z,6.60
2022-11-11T21:06:27.069Z,7.25
2022-11-11T21:08:53.559Z,8.15
2022-11-11T21:11:21.760Z,7.45
2022-11-11T21:13:48.396Z,7.45
2022-11-11T21:16:17.592Z,7.18
2022-11-11T21:18:45.933Z,7.57
2022-11-11T21:21:13.928Z,8.15
2022-11-11T21:23:41.183Z,8.50
2022-11-11T21:26:11.058Z,7.82
2022-11-11T21:28:39.131Z,7.88
2022-11-11T21:31:08.875Z,6.90
2022-11-11T21:33:36.603Z,6.75
2022-11-11T21:36:04.703Z,6.25
2022-11-11T21:38:31.171Z,6.90
2022-11-11T21:41:11.564Z,7.43
2022-11-11T21:43:39.297Z,7.18
2022-11-11T21:46:08.340Z,6.55
2022-11-11T21:48:35.531Z,7.20
2022-11-11T21:51:09.630Z,7.03
2022-11-11T21:53:38.368Z,6.68
2022-11-11T21:56:10.577Z,6.85
2022-11-11T21:58:37.249Z,6.75
2022-11-11T22:01:08.593Z,6.68
2022-11-11T22:03:36.421Z,6.57
2022-11-11T22:06:08.638Z,6.40
2022-11-11T22:08:36.081Z,6.38
2022-11-11T22:11:13.857Z,5.97
2022-11-11T22:13:42.201Z,5.68
2022-11-11T22:16:30.159Z,6.53
2022-11-11T22:19:03.473Z,5.88
2022-11-11T22:21:32.965Z,5.75
2022-11-11T22:24:02.543Z,5.93
2022-11-11T22:26:47.173Z,5.35
2022-11-11T22:29:13.688Z,5.82
2022-11-11T22:31:44.466Z,5.82
2022-11-11T22:34:14.037Z,5.10
2022-11-11T22:36:40.557Z,5.80
2022-11-11T22:39:08.409Z,5.28
2022-11-11T22:41:37.567Z,4.97
2022-11-11T22:44:04.564Z,4.70
2022-11-11T22:46:32.899Z,4.80
2022-11-11T22:49:05.730Z,4.72
2022-11-11T22:51:33.620Z,3.85
2022-11-11T22:54:05.466Z,4.28
2022-11-11T22:56:34.639Z,4.70
2022-11-11T22:59:03.955Z,4.53
2022-11-11T23:01:32.040Z,5.22
2022-11-11T23:04:01.734Z,4.28
2022-11-11T23:06:35.763Z,4.28
2022-11-11T23:09:03.934Z,4.10
2022-11-11T23:11:32.173Z,4.10
2022-11-11T23:14:01.004Z,5.68
2022-11-11T23:16:28.574Z,5.22
2022-11-11T23:18:55.229Z,4.57
2022-11-11T23:21:23.631Z,4.50
2022-11-11T23:23:51.863Z,5.05
2022-11-11T23:26:30.056Z,4.97
2022-11-11T23:28:57.070Z,5.28
2022-11-11T23:31:31.417Z,4.43
2022-11-11T23:34:00.150Z,5.60
2022-11-11T23:36:28.599Z,5.70
2022-11-11T23:38:55.103Z,6.32
2022-11-11T23:41:21.659Z,5.72
2022-11-11T23:43:48.114Z,5.30
2022-11-11T23:46:14.653Z,5.38
2022-11-11T23:48:41.281Z,4.05
2022-11-11T23:51:07.834Z,4.90
2022-11-11T23:53:34.921Z,5.40
2022-11-11T23:56:02.411Z,5.00
2022-11-11T23:58:29.476Z,4.90
